createdAt,value
2023-02-09T00:02:17.670Z,101653.52
2023-02-09T00:04:49.971Z,101652.67
2023-02-09T00:07:21.835Z,101654.41
2023-02-09T00:09:54.490Z,101653.56
2023-02-09T00:12:44.773Z,101648.36
2023-02-09T00:15:16.878Z,101653.56
2023-02-09T00:17:48.843Z,101649.30
2023-02-09T00:20:20.853Z,101645.02
2023-02-09T00:22:52.852Z,101644.17
2023-02-09T00:25:24.900Z,101636.39
2023-02-09T00:27:56.744Z,101641.53
2023-02-09T00:30:28.668Z,101636.27
2023-02-09T00:33:01.261Z,101627.67
2023-02-09T00:35:33.630Z,101622.53
2023-02-09T00:38:05.532Z,101626.79
2023-02-09T00:40:38.592Z,101623.36
2023-02-09T00:43:11.960Z,101613.88
2023-02-09T00:45:44.274Z,101619.92
2023-02-09T00:48:16.219Z,101604.47
2023-02-09T00:50:48.483Z,101607.89
2023-02-09T00:53:21.490Z,101611.42
2023-02-09T00:55:53.880Z,101603.61
2023-02-09T00:58:25.870Z,101608.78
2023-02-09T01:00:58.229Z,101604.49
2023-02-09T01:03:30.319Z,101600.18
2023-02-09T01:06:02.420Z,101601.09
2023-02-09T01:08:34.551Z,101594.16
2023-02-09T01:11:11.264Z,101591.55
2023-02-09T01:13:44.317Z,101592.41
2023-02-09T01:16:19.385Z,101597.53
2023-02-09T01:18:51.986Z,101602.73
2023-02-09T01:21:25.009Z,101604.46
2023-02-09T01:23:57.374Z,101597.56
2023-02-09T01:26:29.660Z,101599.30
2023-02-09T01:29:01.692Z,101604.46
2023-02-09T01:31:36.904Z,101599.30
2023-02-09T01:34:09.365Z,101597.62
2023-02-09T01:36:41.490Z,101589.91
2023-02-09T01:39:15.156Z,101599.36
2023-02-09T01:41:47.294Z,101588.18
2023-02-09T01:44:23.214Z,101594.25
2023-02-09T01:46:55.316Z,101587.36
2023-02-09T01:49:28.915Z,101583.02
2023-02-09T01:52:13.490Z,101594.25
2023-02-09T01:54:48.434Z,101589.94
2023-02-09T01:57:23.343Z,101586.54
2023-02-09T02:00:01.614Z,101583.95
2023-02-09T02:02:36.313Z,101589.16
2023-02-09T02:05:10.506Z,101589.13
2023-02-09T02:07:46.041Z,101584.78
2023-02-09T02:10:18.629Z,101584.81
2023-02-09T02:12:51.348Z,101581.40
2023-02-09T02:15:29.904Z,101588.30
2023-02-09T02:18:07.819Z,101583.98
2023-02-09T02:20:51.866Z,101589.16
2023-02-09T02:23:35.711Z,101593.47
2023-02-09T02:26:25.671Z,101603.83
2023-02-09T02:29:00.971Z,101607.29
2023-02-09T02:31:59.867Z,101602.13
2023-02-09T02:34:56.071Z,101601.27
2023-02-09T02:37:51.502Z,101603.91
2023-02-09T02:40:46.487Z,101608.20
2023-02-09T02:43:27.593Z,101606.47
2023-02-09T02:46:10.514Z,101602.19
2023-02-09T02:48:48.763Z,101605.65
2023-02-09T02:51:32.583Z,101601.34
2023-02-09T02:54:08.217Z,101603.89
2023-02-09T02:56:43.205Z,101612.52
2023-02-09T02:59:18.292Z,101608.23
2023-02-09T03:02:08.379Z,101608.23
2023-02-09T03:04:41.917Z,101602.25
2023-02-09T03:07:14.555Z,101596.29
2023-02-09T03:09:55.272Z,101597.93
2023-02-09T03:12:46.632Z,101597.90
2023-02-09T03:15:47.095Z,101596.17
2023-02-09T03:18:44.635Z,101592.73
2023-02-09T03:21:20.111Z,101598.75
2023-02-09T03:23:57.828Z,101591.85
2023-02-09T03:26:44.398Z,101585.80
2023-02-09T03:29:19.242Z,101584.98
2023-02-09T03:31:52.863Z,101587.56
2023-02-09T03:34:25.338Z,101585.89
2023-02-09T03:36:59.131Z,101583.22
2023-02-09T03:39:31.408Z,101583.20
2023-02-09T03:42:03.572Z,101577.23
2023-02-09T03:44:35.737Z,101581.52
2023-02-09T03:47:10.596Z,101587.56
2023-02-09T03:49:45.673Z,101590.15
2023-02-09T03:52:18.432Z,101579.00
2023-02-09T03:54:50.540Z,101582.48
2023-02-09T03:57:22.943Z,101574.80
2023-02-09T03:59:55.598Z,101573.97
2023-02-09T04:02:27.605Z,101572.27
2023-02-09T04:05:00.623Z,101575.80
2023-02-09T04:07:33.120Z,101574.91
2023-02-09T04:10:07.430Z,101576.61
2023-02-09T04:12:40.289Z,101576.64
2023-02-09T04:15:13.220Z,101583.59
2023-02-09T04:17:45.731Z,101580.19
2023-02-09T04:20:18.415Z,101580.19
2023-02-09T04:22:50.646Z,101581.07
2023-02-09T04:25:23.327Z,101569.05
2023-02-09T04:27:55.449Z,101570.81
2023-02-09T04:30:27.656Z,101574.23
2023-02-09T04:32:59.742Z,101575.98
2023-02-09T04:35:31.898Z,101564.83
2023-02-09T04:38:04.607Z,101557.09
2023-02-09T04:40:37.013Z,101564.88
2023-02-09T04:43:09.688Z,101570.95
2023-02-09T04:45:43.695Z,101589.06
2023-02-09T04:48:19.368Z,101587.30
2023-02-09T04:50:53.642Z,101577.88
2023-02-09T04:53:26.418Z,101570.97
2023-02-09T04:55:59.072Z,101575.27
2023-02-09T04:58:48.841Z,101570.13
2023-02-09T05:01:25.263Z,101580.52
2023-02-09T05:03:57.702Z,101573.69
2023-02-09T05:06:30.661Z,101571.98
2023-02-09T05:09:03.386Z,101573.74
2023-02-09T05:11:37.647Z,101566.86
2023-02-09T05:14:10.130Z,101566.06
2023-02-09T05:16:43.234Z,101560.08
2023-02-09T05:19:16.447Z,101562.64
2023-02-09T05:21:50.536Z,101563.52
2023-02-09T05:24:23.891Z,101562.64
2023-02-09T05:26:56.284Z,101561.77
2023-02-09T05:29:28.687Z,101572.94
2023-02-09T05:32:01.101Z,101559.13
2023-02-09T05:34:33.560Z,101565.96
2023-02-09T05:37:07.516Z,101574.57
2023-02-09T05:39:42.469Z,101578.86
2023-02-09T05:42:18.790Z,101576.30
2023-02-09T05:44:52.743Z,101573.74
2023-02-09T05:47:26.070Z,101567.72
2023-02-09T05:49:58.362Z,101562.59
2023-02-09T05:52:32.090Z,101576.41
2023-02-09T05:55:04.667Z,101571.26
2023-02-09T05:57:37.207Z,101571.33
2023-02-09T06:00:09.924Z,101566.16
2023-02-09T06:02:45.788Z,101564.48
2023-02-09T06:05:20.003Z,101584.28
2023-02-09T06:07:52.970Z,101573.94
2023-02-09T06:10:25.580Z,101575.67
2023-02-09T06:12:57.702Z,101570.42
2023-02-09T06:15:30.418Z,101573.89
2023-02-09T06:18:02.986Z,101573.06
2023-02-09T06:20:35.264Z,101573.92
2023-02-09T06:23:08.215Z,101563.59
2023-02-09T06:25:42.021Z,101563.70
2023-02-09T06:28:15.285Z,101579.21
2023-02-09T06:30:55.262Z,101565.48
2023-02-09T06:33:28.262Z,101562.91
2023-02-09T06:36:01.238Z,101562.13
2023-02-09T06:38:35.632Z,101554.44
2023-02-09T06:41:08.406Z,101556.20
2023-02-09T06:43:40.961Z,101553.59
2023-02-09T06:46:15.335Z,101550.17
2023-02-09T06:48:47.154Z,101545.92
2023-02-09T06:51:19.498Z,101552.18
2023-02-09T06:53:52.185Z,101543.47
2023-02-09T06:56:24.703Z,101553.88
2023-02-09T06:58:57.661Z,101552.19
2023-02-09T07:01:29.904Z,101545.36
2023-02-09T07:04:02.861Z,101551.43
2023-02-09T07:06:35.403Z,101549.80
2023-02-09T07:09:07.713Z,101543.73
2023-02-09T07:11:40.860Z,101547.25
2023-02-09T07:14:13.984Z,101550.67
2023-02-09T07:16:46.675Z,101548.12
2023-02-09T07:19:19.050Z,101549.00
2023-02-09T07:21:51.414Z,101549.91
2023-02-09T07:24:24.788Z,101549.14
2023-02-09T07:26:57.211Z,101550.09
2023-02-09T07:29:32.532Z,101547.56
2023-02-09T07:32:06.216Z,101554.51
2023-02-09T07:34:38.238Z,101557.12
2023-02-09T07:37:11.090Z,101557.98
2023-02-09T07:39:44.912Z,101564.02
2023-02-09T07:42:18.177Z,101564.93
2023-02-09T07:44:54.753Z,101539.09
2023-02-09T07:47:27.704Z,101542.59
2023-02-09T07:50:00.085Z,101540.86
2023-02-09T07:52:32.893Z,101547.80
2023-02-09T07:55:05.930Z,101544.31
2023-02-09T07:57:38.278Z,101543.47
2023-02-09T08:00:11.607Z,101530.52
2023-02-09T08:02:46.882Z,101546.05
2023-02-09T08:05:22.463Z,101543.45
2023-02-09T08:07:56.424Z,101552.13
2023-02-09T08:10:28.637Z,101538.28
2023-02-09T08:13:02.704Z,101540.03
2023-02-09T08:15:40.736Z,101536.58
2023-02-09T08:18:16.525Z,101546.14
2023-02-09T08:20:50.615Z,101540.11
2023-02-09T08:23:26.055Z,101537.58
2023-02-09T08:26:00.126Z,101541.05
2023-02-09T08:28:43.672Z,101530.72
2023-02-09T08:31:07.202Z,101531.58
2023-02-09T08:33:39.660Z,101531.55
2023-02-09T08:36:13.261Z,101534.98
2023-02-09T08:38:46.759Z,101533.27
2023-02-09T08:41:20.118Z,101546.20
2023-02-09T08:43:52.781Z,101541.94
2023-02-09T08:46:25.409Z,101543.72
2023-02-09T08:48:57.618Z,101549.78
2023-02-09T08:51:30.349Z,101541.99
2023-02-09T08:54:02.790Z,101544.57
2023-02-09T08:56:35.066Z,101534.19
2023-02-09T08:59:07.643Z,101536.77
2023-02-09T09:01:40.779Z,101533.33
2023-02-09T09:04:12.989Z,101541.97
2023-02-09T09:06:45.474Z,101539.38
2023-02-09T09:09:19.138Z,101528.98
2023-02-09T09:11:51.249Z,101530.72
2023-02-09T09:14:25.846Z,101534.23
2023-02-09T09:17:01.341Z,101525.56
2023-02-09T09:19:33.577Z,101528.17
2023-02-09T09:22:05.982Z,101530.72
2023-02-09T09:24:40.195Z,101529.85
2023-02-09T09:27:13.831Z,101522.94
2023-02-09T09:29:46.405Z,101532.44
2023-02-09T09:32:20.279Z,101534.19
2023-02-09T09:34:56.463Z,101537.66
2023-02-09T09:37:28.822Z,101527.29
2023-02-09T09:40:01.283Z,101529.89
2023-02-09T09:42:45.950Z,101523.86
2023-02-09T09:45:22.077Z,101520.43
2023-02-09T09:47:56.498Z,101520.45
2023-02-09T09:50:40.385Z,101521.30
2023-02-09T09:53:33.482Z,101522.19
2023-02-09T09:56:09.070Z,101514.42
2023-02-09T09:58:44.099Z,101514.44
2023-02-09T10:01:18.949Z,101505.81
2023-02-09T10:03:51.711Z,101504.98
2023-02-09T10:06:25.300Z,101504.97
2023-02-09T10:09:06.756Z,101492.89
2023-02-09T10:11:48.356Z,101493.78
2023-02-09T10:14:23.473Z,101493.79
2023-02-09T10:16:55.410Z,101490.38
2023-02-09T10:19:30.515Z,101498.19
2023-02-09T10:22:03.229Z,101491.27
2023-02-09T10:24:37.674Z,101477.42
2023-02-09T10:27:24.975Z,101487.78
2023-02-09T10:29:59.456Z,101488.61
2023-02-09T10:32:42.437Z,101489.45
2023-02-09T10:35:17.946Z,101487.70
2023-02-09T10:37:53.365Z,101477.34
2023-02-09T10:40:28.900Z,101479.91
2023-02-09T10:43:19.406Z,101473.03
2023-02-09T10:46:00.643Z,101479.09
2023-02-09T10:48:35.798Z,101479.96
2023-02-09T10:51:12.040Z,101478.23
2023-02-09T10:53:58.454Z,101462.64
2023-02-09T10:56:36.582Z,101470.43
2023-02-09T10:59:19.951Z,101466.09
2023-02-09T11:02:03.283Z,101457.46
2023-02-09T11:04:42.794Z,101459.19
2023-02-09T11:07:17.894Z,101458.31
2023-02-09T11:09:52.122Z,101454.87
2023-02-09T11:12:28.788Z,101453.13
2023-02-09T11:15:01.797Z,101450.55
2023-02-09T11:17:38.110Z,101448.80
2023-02-09T11:20:25.226Z,101441.88
2023-02-09T11:23:17.829Z,101446.20
2023-02-09T11:25:53.494Z,101441.91
2023-02-09T11:28:50.770Z,101436.73
2023-02-09T11:31:27.179Z,101438.48
2023-02-09T11:34:02.516Z,101436.78
2023-02-09T11:36:54.512Z,101437.63
2023-02-09T11:39:59.805Z,101438.45
2023-02-09T11:42:45.575Z,101428.95
2023-02-09T11:45:35.630Z,101441.03
2023-02-09T11:48:20.347Z,101425.47
2023-02-09T11:50:58.786Z,101434.97
2023-02-09T11:53:46.019Z,101440.16
2023-02-09T11:56:21.321Z,101437.55
2023-02-09T11:59:14.005Z,101437.58
2023-02-09T12:02:15.884Z,101430.66
2023-02-09T12:04:57.117Z,101427.20
2023-02-09T12:07:52.086Z,101433.23
2023-02-09T12:10:37.513Z,101426.31
2023-02-09T12:13:31.650Z,101429.75
2023-02-09T12:16:25.088Z,101432.36
2023-02-09T12:18:58.152Z,101432.34
2023-02-09T12:21:37.856Z,101438.39
2023-02-09T12:24:29.490Z,101431.45
2023-02-09T12:27:02.315Z,101430.59
2023-02-09T12:29:42.704Z,101429.70
2023-02-09T12:32:17.422Z,101432.30
2023-02-09T12:34:52.505Z,101433.13
2023-02-09T12:37:29.928Z,101426.20
2023-02-09T12:40:18.607Z,101425.34
2023-02-09T12:42:53.776Z,101423.60
2023-02-09T12:45:37.886Z,101414.09
2023-02-09T12:48:18.302Z,101420.13
2023-02-09T12:50:56.177Z,101421.02
2023-02-09T12:53:37.899Z,101424.47
2023-02-09T12:56:16.424Z,101424.48
2023-02-09T12:58:51.570Z,101422.77
2023-02-09T13:01:26.087Z,101421.03
2023-02-09T13:04:01.344Z,101417.58
2023-02-09T13:06:40.059Z,101418.47
2023-02-09T13:09:21.544Z,101417.59
2023-02-09T13:11:59.623Z,101416.67
2023-02-09T13:14:32.642Z,101408.92
2023-02-09T13:17:28.347Z,101401.96
2023-02-09T13:20:03.953Z,101401.10
2023-02-09T13:22:54.720Z,101396.78
2023-02-09T13:25:38.764Z,101395.03
2023-02-09T13:28:19.662Z,101403.66
2023-02-09T13:30:52.527Z,101402.80
2023-02-09T13:33:40.491Z,101390.70
2023-02-09T13:36:25.460Z,101395.03
2023-02-09T13:38:59.547Z,101389.85
2023-02-09T13:41:37.751Z,101397.62
2023-02-09T13:44:27.978Z,101394.20
2023-02-09T13:47:02.483Z,101396.77
2023-02-09T13:49:35.065Z,101389.85
2023-02-09T13:52:20.818Z,101384.65
2023-02-09T13:54:53.545Z,101382.05
2023-02-09T13:57:32.494Z,101382.05
2023-02-09T14:00:24.190Z,101376.88
2023-02-09T14:03:01.454Z,101370.81
2023-02-09T14:05:51.545Z,101373.41
2023-02-09T14:08:25.277Z,101374.29
2023-02-09T14:11:12.734Z,101382.91
2023-02-09T14:13:48.000Z,101382.05
2023-02-09T14:16:22.253Z,101374.29
2023-02-09T14:18:58.972Z,101375.14
2023-02-09T14:21:40.397Z,101366.48
2023-02-09T14:24:24.941Z,101361.27
2023-02-09T14:27:05.926Z,101371.66
2023-02-09T14:29:38.940Z,101357.86
2023-02-09T14:32:36.504Z,101363.03
2023-02-09T14:35:23.423Z,101359.55
2023-02-09T14:37:57.658Z,101360.39
2023-02-09T14:40:32.059Z,101354.38
2023-02-09T14:43:15.128Z,101352.71
2023-02-09T14:45:49.973Z,101351.77
2023-02-09T14:48:28.748Z,101343.13
2023-02-09T14:51:13.157Z,101337.08
2023-02-09T14:53:46.318Z,101337.08
2023-02-09T14:56:28.173Z,101334.47
2023-02-09T14:59:00.591Z,101329.28
2023-02-09T15:01:32.657Z,101333.59
2023-02-09T15:04:04.663Z,101324.95
2023-02-09T15:06:37.168Z,101330.22
2023-02-09T15:09:10.924Z,101340.55
2023-02-09T15:12:01.217Z,101327.59
2023-02-09T15:14:36.551Z,101329.30
2023-02-09T15:17:17.660Z,101324.10
2023-02-09T15:19:50.161Z,101321.51
2023-02-09T15:22:23.171Z,101320.64
2023-02-09T15:24:55.932Z,101317.20
2023-02-09T15:27:36.811Z,101316.34
2023-02-09T15:30:11.936Z,101314.58
2023-02-09T15:32:44.570Z,101317.19
2023-02-09T15:35:19.751Z,101318.03
2023-02-09T15:37:57.565Z,101321.48
2023-02-09T15:40:58.893Z,101326.67
2023-02-09T15:43:49.312Z,101325.81
2023-02-09T15:46:40.089Z,101316.30
2023-02-09T15:49:12.670Z,101314.60
2023-02-09T15:51:45.485Z,101316.30
2023-02-09T15:54:21.800Z,101321.46
2023-02-09T15:56:55.217Z,101321.47
2023-02-09T15:59:28.262Z,101324.89
2023-02-09T16:02:01.345Z,101318.87
2023-02-09T16:04:34.759Z,101321.47
2023-02-09T16:07:08.076Z,101321.47
2023-02-09T16:09:42.844Z,101315.39
2023-02-09T16:12:14.996Z,101321.47
2023-02-09T16:14:47.214Z,101312.81
2023-02-09T16:17:19.310Z,101312.81
2023-02-09T16:19:52.046Z,101305.05
2023-02-09T16:22:25.430Z,101317.98
2023-02-09T16:24:57.992Z,101305.06
2023-02-09T16:27:30.611Z,101313.70
2023-02-09T16:30:03.004Z,101305.91
2023-02-09T16:32:35.478Z,101315.39
2023-02-09T16:35:16.709Z,101305.88
2023-02-09T16:37:44.367Z,101305.03
2023-02-09T16:40:25.964Z,101296.39
2023-02-09T16:43:01.558Z,101309.34
2023-02-09T16:45:38.099Z,101302.43
2023-02-09T16:48:28.070Z,101304.13
2023-02-09T16:51:00.689Z,101290.31
2023-02-09T16:53:38.848Z,101286.88
2023-02-09T16:56:15.664Z,101292.92
2023-02-09T16:58:49.186Z,101286.88
2023-02-09T17:01:24.096Z,101286.91
2023-02-09T17:03:58.329Z,101275.65
2023-02-09T17:06:31.408Z,101280.83
2023-02-09T17:09:03.345Z,101279.96
2023-02-09T17:11:35.459Z,101279.92
2023-02-09T17:14:08.123Z,101273.03
2023-02-09T17:16:43.762Z,101268.69
2023-02-09T17:19:18.463Z,101269.56
2023-02-09T17:21:50.727Z,101268.71
2023-02-09T17:24:23.218Z,101267.83
2023-02-09T17:26:55.508Z,101259.18
2023-02-09T17:29:27.784Z,101258.28
2023-02-09T17:32:01.177Z,101260.00
2023-02-09T17:34:33.647Z,101245.33
2023-02-09T17:37:06.094Z,101241.88
2023-02-09T17:39:38.982Z,101241.88
2023-02-09T17:42:14.351Z,101246.22
2023-02-09T17:44:46.992Z,101242.73
2023-02-09T17:47:21.301Z,101243.56
2023-02-09T17:49:53.905Z,101244.45
2023-02-09T17:52:26.089Z,101236.67
2023-02-09T17:54:58.389Z,101241.84
2023-02-09T17:57:30.344Z,101245.29
2023-02-09T18:00:02.560Z,101248.73
2023-02-09T18:02:35.561Z,101234.09
2023-02-09T18:05:08.001Z,101232.33
2023-02-09T18:07:40.513Z,101231.50
2023-02-09T18:10:12.881Z,101227.14
2023-02-09T18:12:45.785Z,101226.32
2023-02-09T18:15:39.970Z,101231.46
2023-02-09T18:18:12.542Z,101224.55
2023-02-09T18:20:44.952Z,101208.15
2023-02-09T18:23:17.364Z,101208.12
2023-02-09T18:25:51.565Z,101211.58
2023-02-09T18:28:24.184Z,101208.12
2023-02-09T18:30:57.283Z,101198.64
2023-02-09T18:33:29.657Z,101202.96
2023-02-09T18:36:02.427Z,101205.53
2023-02-09T18:38:36.292Z,101204.66
2023-02-09T18:41:10.112Z,101207.27
2023-02-09T18:43:42.910Z,101196.05
2023-02-09T18:46:16.463Z,101190.84
2023-02-09T18:48:48.696Z,101190.83
2023-02-09T18:51:20.841Z,101193.42
2023-02-09T18:53:53.052Z,101189.13
2023-02-09T18:56:28.745Z,101184.81
2023-02-09T18:59:00.704Z,101190.83
2023-02-09T19:01:33.175Z,101174.44
2023-02-09T19:04:05.375Z,101179.60
2023-02-09T19:06:37.520Z,101181.33
2023-02-09T19:09:09.766Z,101174.39
2023-02-09T19:11:41.771Z,101168.33
2023-02-09T19:14:32.152Z,101164.01
2023-02-09T19:17:05.568Z,101158.83
2023-02-09T19:19:39.055Z,101164.05
2023-02-09T19:22:13.091Z,101154.54
2023-02-09T19:24:46.016Z,101161.47
2023-02-09T19:27:19.146Z,101146.80
2023-02-09T19:29:56.572Z,101145.02
2023-02-09T19:32:28.617Z,101142.41
2023-02-09T19:35:00.833Z,101149.34
2023-02-09T19:37:33.755Z,101141.54
2023-02-09T19:40:07.598Z,101138.96
2023-02-09T19:42:39.664Z,101138.98
2023-02-09T19:45:11.740Z,101139.84
2023-02-09T19:47:44.001Z,101135.50
2023-02-09T19:50:17.562Z,101126.00
2023-02-09T19:52:50.521Z,101119.97
2023-02-09T19:55:24.128Z,101123.40
2023-02-09T19:57:56.317Z,101124.24
2023-02-09T20:00:28.570Z,101119.09
2023-02-09T20:03:01.689Z,101116.51
2023-02-09T20:05:34.034Z,101111.31
2023-02-09T20:08:06.332Z,101107.00
2023-02-09T20:10:41.497Z,101107.81
2023-02-09T20:13:15.061Z,101094.88
2023-02-09T20:15:47.686Z,101094.02
2023-02-09T20:18:20.317Z,101094.87
2023-02-09T20:20:52.756Z,101084.50
2023-02-09T20:23:25.209Z,101090.55
2023-02-09T20:25:57.352Z,101087.06
2023-02-09T20:28:29.899Z,101082.75
2023-02-09T20:31:02.199Z,101083.61
2023-02-09T20:33:37.014Z,101082.73
2023-02-09T20:36:10.762Z,101070.70
2023-02-09T20:38:43.419Z,101077.58
2023-02-09T20:41:18.555Z,101072.42
2023-02-09T20:44:08.874Z,101068.98
2023-02-09T20:46:42.617Z,101078.48
2023-02-09T20:49:17.107Z,101068.06
2023-02-09T20:51:49.822Z,101079.28
2023-02-09T20:54:21.938Z,101071.54
2023-02-09T20:56:54.132Z,101072.41
2023-02-09T20:59:26.632Z,101060.36
2023-02-09T21:01:59.999Z,101061.20
2023-02-09T21:04:32.281Z,101068.97
2023-02-09T21:07:04.649Z,101060.34
2023-02-09T21:09:36.841Z,101059.48
2023-02-09T21:12:09.130Z,101066.33
2023-02-09T21:14:43.415Z,101061.20
2023-02-09T21:17:15.376Z,101060.33
2023-02-09T21:19:47.236Z,101049.20
2023-02-09T21:22:19.403Z,101047.34
2023-02-09T21:24:51.592Z,101042.14
2023-02-09T21:27:25.227Z,101042.16
2023-02-09T21:29:57.303Z,101042.17
2023-02-09T21:32:29.385Z,101034.41
2023-02-09T21:35:01.417Z,101032.70
2023-02-09T21:37:33.745Z,101031.84
2023-02-09T21:40:07.612Z,101032.73
2023-02-09T21:42:41.170Z,101030.13
2023-02-09T21:45:13.937Z,101024.13
2023-02-09T21:47:45.874Z,101013.80
2023-02-09T21:50:18.058Z,101003.45
2023-02-09T21:52:50.494Z,101006.02
2023-02-09T21:55:23.259Z,101000.84
2023-02-09T21:57:55.686Z,101004.30
2023-02-09T22:00:27.750Z,101007.76
2023-02-09T22:02:59.857Z,101005.14
2023-02-09T22:05:32.153Z,100992.20
2023-02-09T22:08:04.144Z,100993.10
2023-02-09T22:10:36.257Z,100991.34
2023-02-09T22:13:09.722Z,100987.01
2023-02-09T22:15:43.045Z,100978.38
2023-02-09T22:18:15.470Z,100972.36
2023-02-09T22:20:48.935Z,100970.67
2023-02-09T22:23:21.137Z,100971.52
2023-02-09T22:25:54.713Z,100964.59
2023-02-09T22:28:27.004Z,100980.11
2023-02-09T22:31:00.701Z,100960.27
2023-02-09T22:33:32.831Z,100962.02
2023-02-09T22:36:10.609Z,100951.69
2023-02-09T22:38:44.727Z,100957.69
2023-02-09T22:41:22.258Z,100949.09
2023-02-09T22:44:03.101Z,100937.88
2023-02-09T22:46:37.628Z,100949.06
2023-02-09T22:49:12.546Z,100950.78
2023-02-09T22:51:45.644Z,100936.16
2023-02-09T22:54:19.730Z,100935.28
2023-02-09T22:56:52.101Z,100918.02
2023-02-09T22:59:24.200Z,100930.05
2023-02-09T23:01:56.471Z,100923.16
2023-02-09T23:04:28.818Z,100919.67
2023-02-09T23:07:01.363Z,100915.41
2023-02-09T23:09:33.393Z,100909.37
2023-02-09T23:12:05.761Z,100900.78
2023-02-09T23:14:37.869Z,100897.33
2023-02-09T23:17:10.126Z,100889.58
2023-02-09T23:19:45.130Z,100900.80
2023-02-09T23:22:17.002Z,100895.63
2023-02-09T23:24:48.952Z,100899.98
2023-02-09T23:27:22.446Z,100887.87
2023-02-09T23:29:56.024Z,100883.55
2023-02-09T23:32:29.753Z,100874.94
2023-02-09T23:35:02.022Z,100873.20
2023-02-09T23:37:38.267Z,100880.95
2023-02-09T23:40:08.197Z,100867.16
2023-02-09T23:42:40.078Z,100872.33
2023-02-09T23:45:12.156Z,100875.78
2023-02-09T23:47:44.324Z,100860.30
2023-02-09T23:50:16.352Z,100852.52
2023-02-09T23:52:48.453Z,100843.87
2023-02-09T23:55:20.454Z,100841.27
2023-02-09T23:57:52.529Z,100837.83
